createdAt,value
2023-03-02T00:00:19.129Z,-3.11
2023-03-02T00:02:45.908Z,-3.01
2023-03-02T00:05:14.570Z,-3.25
2023-03-02T00:07:41.293Z,-3.49
2023-03-02T00:10:08.572Z,-3.54
2023-03-02T00:12:42.593Z,-3.53
2023-03-02T00:15:09.786Z,-3.19
2023-03-02T00:17:37.287Z,-3.24
2023-03-02T00:20:11.122Z,-3.29
2023-03-02T00:22:54.344Z,-3.16
2023-03-02T00:25:21.022Z,-3.17
2023-03-02T00:27:47.690Z,-3.13
2023-03-02T00:30:26.580Z,-3.10
2023-03-02T00:33:13.492Z,-3.05
2023-03-02T00:35:51.689Z,-3.22
2023-03-02T00:38:18.429Z,-3.21
2023-03-02T00:40:46.360Z,-3.16
2023-03-02T00:43:13.536Z,-3.11
2023-03-02T00:45:43.165Z,-3.23
2023-03-02T00:48:16.076Z,-3.22
2023-03-02T00:50:43.006Z,-3.47
2023-03-02T00:53:14.510Z,-3.51
2023-03-02T00:55:52.997Z,-3.24
2023-03-02T00:58:27.945Z,-3.25
2023-03-02T01:00:55.750Z,-3.32
2023-03-02T01:03:22.727Z,-3.37
2023-03-02T01:05:58.904Z,-3.39
2023-03-02T01:08:25.555Z,-3.51
2023-03-02T01:10:54.303Z,-3.54
2023-03-02T01:13:28.866Z,-3.66
2023-03-02T01:16:07.328Z,-3.66
2023-03-02T01:18:38.666Z,-3.69
2023-03-02T01:21:07.655Z,-3.79
2023-03-02T01:23:42.844Z,-3.77
2023-03-02T01:26:09.904Z,-3.76
2023-03-02T01:28:36.803Z,-3.97
2023-03-02T01:31:06.660Z,-3.92
2023-03-02T01:33:39.417Z,-4.00
2023-03-02T01:36:06.701Z,-4.02
2023-03-02T01:38:33.419Z,-3.99
2023-03-02T01:41:00.110Z,-4.03
2023-03-02T01:43:32.836Z,-4.07
2023-03-02T01:46:15.877Z,-4.05
2023-03-02T01:48:48.452Z,-4.10
2023-03-02T01:51:26.529Z,-4.15
2023-03-02T01:54:06.462Z,-4.14
2023-03-02T01:56:36.176Z,-4.01
2023-03-02T01:59:16.772Z,-4.14
2023-03-02T02:01:45.756Z,-4.22
2023-03-02T02:04:12.603Z,-4.34
2023-03-02T02:06:45.709Z,-4.33
2023-03-02T02:09:15.312Z,-4.37
2023-03-02T02:11:43.390Z,-4.42
2023-03-02T02:14:16.374Z,-4.41
2023-03-02T02:16:43.101Z,-4.45
2023-03-02T02:19:50.134Z,-4.48
2023-03-02T02:22:32.375Z,-4.36
2023-03-02T02:25:02.788Z,-4.24
2023-03-02T02:27:33.754Z,-4.06
2023-03-02T02:30:04.085Z,-4.15
2023-03-02T02:32:42.052Z,-4.04
2023-03-02T02:35:29.998Z,-3.97
2023-03-02T02:38:13.073Z,-3.91
2023-03-02T02:40:58.345Z,-3.81
2023-03-02T02:43:39.819Z,-3.76
2023-03-02T02:46:06.608Z,-3.94
2023-03-02T02:48:36.495Z,-3.97
2023-03-02T02:51:15.812Z,-4.04
2023-03-02T02:54:02.339Z,-3.98
2023-03-02T02:56:38.676Z,-3.89
2023-03-02T02:59:21.112Z,-3.86
2023-03-02T03:01:49.015Z,-3.86
2023-03-02T03:04:20.197Z,-3.89
2023-03-02T03:06:54.584Z,-4.08
2023-03-02T03:09:22.043Z,-4.24
2023-03-02T03:11:52.286Z,-4.15
2023-03-02T03:14:29.632Z,-4.01
2023-03-02T03:16:57.037Z,-4.10
2023-03-02T03:19:27.916Z,-4.05
2023-03-02T03:22:00.865Z,-4.28
2023-03-02T03:24:37.373Z,-4.45
2023-03-02T03:27:06.272Z,-4.47
2023-03-02T03:29:38.093Z,-4.51
2023-03-02T03:32:07.093Z,-4.56
2023-03-02T03:34:40.512Z,-4.30
2023-03-02T03:37:26.309Z,-4.28
2023-03-02T03:39:53.412Z,-4.13
2023-03-02T03:42:26.047Z,-4.14
2023-03-02T03:44:54.737Z,-4.30
2023-03-02T03:47:23.975Z,-3.96
2023-03-02T03:50:00.733Z,-4.08
2023-03-02T03:52:39.114Z,-4.10
2023-03-02T03:55:12.552Z,-4.12
2023-03-02T03:57:41.087Z,-4.11
2023-03-02T04:00:10.780Z,-4.20
2023-03-02T04:02:56.005Z,-4.18
2023-03-02T04:05:23.360Z,-4.10
2023-03-02T04:07:52.898Z,-4.08
2023-03-02T04:10:23.107Z,-4.11
2023-03-02T04:12:52.222Z,-4.22
2023-03-02T04:15:18.945Z,-4.32
2023-03-02T04:17:47.633Z,-4.41
2023-03-02T04:20:21.035Z,-4.33
2023-03-02T04:22:51.919Z,-4.21
2023-03-02T04:25:31.029Z,-4.15
2023-03-02T04:28:17.650Z,-4.34
2023-03-02T04:30:45.488Z,-4.46
2023-03-02T04:33:15.239Z,-4.49
2023-03-02T04:35:46.214Z,-4.47
2023-03-02T04:38:16.265Z,-4.54
2023-03-02T04:40:46.204Z,-4.61
2023-03-02T04:43:15.890Z,-4.61
2023-03-02T04:45:51.514Z,-4.51
2023-03-02T04:48:23.495Z,-4.38
2023-03-02T04:50:50.210Z,-4.31
2023-03-02T04:53:25.716Z,-4.26
2023-03-02T04:55:58.785Z,-4.18
2023-03-02T04:58:28.080Z,-4.14
2023-03-02T05:01:02.193Z,-4.06
2023-03-02T05:03:29.256Z,-4.05
2023-03-02T05:06:03.375Z,-4.00
2023-03-02T05:08:33.841Z,-3.96
2023-03-02T05:11:01.054Z,-3.92
2023-03-02T05:13:27.976Z,-3.87
2023-03-02T05:16:03.108Z,-3.85
2023-03-02T05:18:32.171Z,-3.77
2023-03-02T05:20:58.896Z,-3.75
2023-03-02T05:23:35.213Z,-3.67
2023-03-02T05:26:38.812Z,-3.66
2023-03-02T05:29:05.774Z,-3.66
2023-03-02T05:31:48.320Z,-3.68
2023-03-02T05:37:22.213Z,-3.75
2023-03-02T05:39:56.795Z,-3.75
2023-03-02T05:42:24.658Z,-3.76
2023-03-02T05:44:57.505Z,-3.76
2023-03-02T05:47:49.842Z,-3.83
2023-03-02T05:50:27.003Z,-3.85
2023-03-02T05:53:00.131Z,-3.78
2023-03-02T05:55:26.865Z,-3.85
2023-03-02T05:57:53.616Z,-3.82
2023-03-02T06:00:49.407Z,-3.83
2023-03-02T06:03:16.714Z,-3.81
2023-03-02T06:05:45.081Z,-3.77
2023-03-02T06:08:21.513Z,-3.81
2023-03-02T06:10:50.747Z,-3.71
2023-03-02T06:13:25.446Z,-3.72
2023-03-02T06:15:53.205Z,-3.75
2023-03-02T06:18:19.805Z,-3.73
2023-03-02T06:20:46.704Z,-3.66
2023-03-02T06:23:16.982Z,-3.62
2023-03-02T06:25:48.633Z,-3.57
2023-03-02T06:28:29.273Z,-3.53
2023-03-02T06:30:58.527Z,-3.55
2023-03-02T06:33:25.201Z,-3.44
2023-03-02T06:35:56.956Z,-3.45
2023-03-02T06:38:23.817Z,-3.49
2023-03-02T06:40:50.702Z,-3.47
2023-03-02T06:43:17.399Z,-3.46
2023-03-02T06:45:44.088Z,-3.41
2023-03-02T06:48:19.862Z,-3.40
2023-03-02T06:50:46.531Z,-3.39
2023-03-02T06:53:17.680Z,-3.34
2023-03-02T06:55:47.891Z,-3.31
2023-03-02T06:58:19.150Z,-3.31
2023-03-02T07:00:46.173Z,-3.26
2023-03-02T07:03:37.787Z,-3.25
2023-03-02T07:06:05.179Z,-3.23
2023-03-02T07:08:31.772Z,-3.27
2023-03-02T07:10:58.426Z,-3.19
2023-03-02T07:13:31.756Z,-3.22
2023-03-02T07:15:58.541Z,-3.15
2023-03-02T07:18:25.163Z,-3.16
2023-03-02T07:20:51.817Z,-3.17
2023-03-02T07:23:18.551Z,-3.22
2023-03-02T07:25:51.620Z,-3.23
2023-03-02T07:28:18.260Z,-3.23
2023-03-02T07:30:45.062Z,-3.12
2023-03-02T07:33:21.575Z,-3.12
2023-03-02T07:35:48.688Z,-3.16
2023-03-02T07:38:15.534Z,-3.00
2023-03-02T07:40:43.196Z,-3.10
2023-03-02T07:43:19.311Z,-3.08
2023-03-02T07:45:46.277Z,-3.09
2023-03-02T07:48:23.736Z,-3.01
2023-03-02T07:50:50.367Z,-2.88
2023-03-02T07:53:17.058Z,-2.92
2023-03-02T08:00:32.215Z,-2.76
2023-03-02T08:03:50.401Z,-2.70
2023-03-02T08:06:23.804Z,-2.75
2023-03-02T08:09:10.007Z,-2.82
2023-03-02T08:11:42.031Z,-2.93
2023-03-02T08:17:52.811Z,-2.86
2023-03-02T08:20:30.346Z,-2.79
2023-03-02T08:23:05.562Z,-2.76
2023-03-02T08:26:14.294Z,-2.70
2023-03-02T08:29:13.691Z,-2.64
2023-03-02T08:31:43.260Z,-2.50
2023-03-02T08:34:16.682Z,-2.47
2023-03-02T08:39:41.471Z,-2.38
2023-03-02T08:45:09.637Z,-2.11
2023-03-02T08:47:52.298Z,-1.96
2023-03-02T08:50:19.309Z,-2.07
2023-03-02T08:52:48.422Z,-2.05
2023-03-02T08:55:24.232Z,-2.11
2023-03-02T08:57:51.012Z,-2.08
2023-03-02T09:00:18.705Z,-1.96
2023-03-02T09:02:51.386Z,-1.96
2023-03-02T09:05:18.146Z,-1.91
2023-03-02T09:07:44.830Z,-2.08
2023-03-02T09:10:11.527Z,-2.00
2023-03-02T09:12:38.256Z,-2.00
2023-03-02T09:15:14.094Z,-1.95
2023-03-02T09:17:40.858Z,-1.83
2023-03-02T09:20:08.812Z,-1.85
2023-03-02T09:22:48.520Z,-1.88
2023-03-02T09:25:15.668Z,-1.81
2023-03-02T09:27:42.391Z,-1.72
2023-03-02T09:30:13.995Z,-1.82
2023-03-02T09:32:41.333Z,-1.76
2023-03-02T09:35:08.499Z,-1.62
2023-03-02T09:37:37.407Z,-1.66
2023-03-02T09:40:31.699Z,-1.72
2023-03-02T09:43:29.694Z,-1.86
2023-03-02T09:46:14.680Z,-1.66
2023-03-02T09:48:46.243Z,-1.40
2023-03-02T09:51:32.414Z,-1.36
2023-03-02T09:54:04.787Z,-1.26
2023-03-02T09:56:35.667Z,-1.23
2023-03-02T09:59:13.988Z,-1.06
2023-03-02T10:01:44.590Z,-1.15
2023-03-02T10:04:34.600Z,-1.11
2023-03-02T10:07:19.068Z,-1.12
2023-03-02T10:09:49.990Z,-0.97
2023-03-02T10:12:39.109Z,-0.66
2023-03-02T10:15:10.209Z,-1.10
2023-03-02T10:18:05.736Z,-1.06
2023-03-02T10:20:37.160Z,-0.77
2023-03-02T10:23:40.132Z,-0.80
2023-03-02T10:26:37.862Z,-0.81
2023-03-02T10:29:10.394Z,-0.90
2023-03-02T10:31:47.123Z,-0.84
2023-03-02T10:34:14.068Z,-0.64
2023-03-02T10:36:43.711Z,-0.81
2023-03-02T10:39:16.731Z,-0.71
2023-03-02T10:41:57.815Z,-0.54
2023-03-02T10:44:30.675Z,-0.42
2023-03-02T10:46:57.484Z,-0.45
2023-03-02T10:49:36.707Z,-0.28
2023-03-02T10:52:13.473Z,0.08
2023-03-02T10:54:40.522Z,0.12
2023-03-02T10:57:21.796Z,0.27
2023-03-02T10:59:52.055Z,0.32
2023-03-02T11:02:28.437Z,0.29
2023-03-02T11:04:57.325Z,0.09
2023-03-02T11:07:27.830Z,-0.02
2023-03-02T11:10:08.144Z,0.11
2023-03-02T11:12:44.770Z,0.08
2023-03-02T11:15:32.684Z,0.20
2023-03-02T11:18:27.533Z,0.43
2023-03-02T11:21:22.252Z,-0.02
2023-03-02T11:24:03.910Z,0.21
2023-03-02T11:26:39.377Z,-0.01
2023-03-02T11:29:17.868Z,0.27
2023-03-02T11:31:53.564Z,0.48
2023-03-02T11:34:54.204Z,0.38
2023-03-02T11:37:41.706Z,0.64
2023-03-02T11:40:26.097Z,0.46
2023-03-02T11:42:53.462Z,0.63
2023-03-02T11:48:22.392Z,1.02
2023-03-02T11:50:59.343Z,0.45
2023-03-02T11:53:31.747Z,0.75
2023-03-02T11:55:58.539Z,0.71
2023-03-02T11:58:33.359Z,0.93
2023-03-02T12:01:01.165Z,0.90
2023-03-02T12:03:27.826Z,0.84
2023-03-02T12:06:22.462Z,1.11
2023-03-02T12:08:52.715Z,1.08
2023-03-02T12:11:19.337Z,1.23
2023-03-02T12:13:46.811Z,1.85
2023-03-02T12:16:24.290Z,2.01
2023-03-02T12:21:43.466Z,2.46
2023-03-02T12:24:29.871Z,2.47
2023-03-02T12:27:27.231Z,2.25
2023-03-02T12:30:11.254Z,1.89
2023-03-02T12:32:38.355Z,1.97
2023-03-02T12:35:08.173Z,1.67
2023-03-02T12:37:45.530Z,1.86
2023-03-02T12:40:15.058Z,2.27
2023-03-02T12:42:41.679Z,2.23
2023-03-02T12:45:15.115Z,2.31
2023-03-02T12:47:44.966Z,2.49
2023-03-02T12:50:27.412Z,2.13
2023-03-02T12:52:58.622Z,2.24
2023-03-02T12:55:25.501Z,2.44
2023-03-02T12:57:59.928Z,2.38
2023-03-02T13:00:30.169Z,2.11
2023-03-02T13:02:58.460Z,2.37
2023-03-02T13:05:30.730Z,1.86
2023-03-02T13:08:00.628Z,1.60
2023-03-02T13:10:36.129Z,1.39
2023-03-02T13:13:12.969Z,1.64
2023-03-02T13:15:51.116Z,1.74
2023-03-02T13:18:27.713Z,1.85
2023-03-02T13:20:54.755Z,1.91
2023-03-02T13:23:21.861Z,2.18
2023-03-02T13:25:58.900Z,1.96
2023-03-02T13:28:32.475Z,1.83
2023-03-02T13:31:01.622Z,1.85
2023-03-02T13:33:30.070Z,1.55
2023-03-02T13:35:57.254Z,1.68
2023-03-02T13:38:26.650Z,1.64
2023-03-02T13:41:02.197Z,1.77
2023-03-02T13:43:34.824Z,1.87
2023-03-02T13:46:25.873Z,2.19
2023-03-02T13:49:10.234Z,2.57
2023-03-02T13:51:44.221Z,2.38
2023-03-02T13:54:25.972Z,2.51
2023-03-02T13:56:53.841Z,2.32
2023-03-02T13:59:30.296Z,2.36
2023-03-02T14:01:58.688Z,2.60
2023-03-02T14:04:25.759Z,2.53
2023-03-02T14:06:56.439Z,2.85
2023-03-02T14:09:23.377Z,2.69
2023-03-02T14:11:52.339Z,2.68
2023-03-02T14:14:29.224Z,2.70
2023-03-02T14:16:56.436Z,2.68
2023-03-02T14:19:23.159Z,2.66
2023-03-02T14:21:50.048Z,2.68
2023-03-02T14:24:25.594Z,2.89
2023-03-02T14:26:52.714Z,2.61
2023-03-02T14:29:33.582Z,2.82
2023-03-02T14:32:13.973Z,2.75
2023-03-02T14:34:44.815Z,2.64
2023-03-02T14:37:27.249Z,2.62
2023-03-02T14:39:55.718Z,2.57
2023-03-02T14:42:32.575Z,2.63
2023-03-02T14:45:00.025Z,2.56
2023-03-02T14:47:26.929Z,2.53
2023-03-02T14:50:00.934Z,2.33
2023-03-02T14:52:46.333Z,2.35
2023-03-02T14:55:31.393Z,2.30
2023-03-02T14:58:02.071Z,2.35
2023-03-02T15:00:29.149Z,2.34
2023-03-02T15:02:59.479Z,2.38
2023-03-02T15:05:26.493Z,2.42
2023-03-02T15:07:53.812Z,2.44
2023-03-02T15:10:22.113Z,2.39
2023-03-02T15:12:49.108Z,2.38
2023-03-02T15:15:21.636Z,2.06
2023-03-02T15:17:52.285Z,2.04
2023-03-02T15:20:19.353Z,2.15
2023-03-02T15:22:47.252Z,1.99
2023-03-02T15:25:14.104Z,1.74
2023-03-02T15:27:41.807Z,1.77
2023-03-02T15:30:16.954Z,1.78
2023-03-02T15:32:43.850Z,1.51
2023-03-02T15:35:12.422Z,1.50
2023-03-02T15:37:39.444Z,1.37
2023-03-02T15:40:06.928Z,1.28
2023-03-02T15:42:33.833Z,1.15
2023-03-02T15:45:00.475Z,1.24
2023-03-02T15:47:27.208Z,1.24
2023-03-02T15:49:53.960Z,1.28
2023-03-02T15:52:23.465Z,1.04
2023-03-02T15:54:53.202Z,1.00
2023-03-02T15:57:27.548Z,0.97
2023-03-02T15:59:54.357Z,0.94
2023-03-02T16:02:24.171Z,1.12
2023-03-02T16:04:53.380Z,1.06
2023-03-02T16:07:28.096Z,1.01
2023-03-02T16:09:57.698Z,0.83
2023-03-02T16:12:25.681Z,0.73
2023-03-02T16:14:54.819Z,0.76
2023-03-02T16:17:25.258Z,0.65
2023-03-02T16:19:55.125Z,0.48
2023-03-02T16:22:24.876Z,0.50
2023-03-02T16:24:54.188Z,0.43
2023-03-02T16:27:20.809Z,0.41
2023-03-02T16:29:49.384Z,0.41
2023-03-02T16:32:16.222Z,0.28
2023-03-02T16:34:43.001Z,0.31
2023-03-02T16:37:11.951Z,0.17
2023-03-02T16:39:38.745Z,0.11
2023-03-02T16:42:05.469Z,0.16
2023-03-02T16:44:32.544Z,-0.01
2023-03-02T16:46:59.491Z,-0.07
2023-03-02T16:49:26.156Z,0.04
2023-03-02T16:51:57.875Z,0.14
2023-03-02T16:54:25.316Z,0.03
2023-03-02T16:56:52.066Z,0.10
2023-03-02T16:59:18.748Z,-0.08
2023-03-02T17:01:52.678Z,-0.14
2023-03-02T17:04:21.195Z,-0.19
2023-03-02T17:07:03.642Z,-0.21
2023-03-02T17:09:31.675Z,-0.09
2023-03-02T17:11:58.539Z,-0.13
2023-03-02T17:14:25.519Z,-0.22
2023-03-02T17:16:56.929Z,-0.31
2023-03-02T17:19:24.606Z,-0.27
2023-03-02T17:21:51.425Z,-0.32
2023-03-02T17:24:23.784Z,-0.30
2023-03-02T17:26:50.619Z,-0.34
2023-03-02T17:29:17.353Z,-0.32
2023-03-02T17:31:44.860Z,-0.34
2023-03-02T17:34:12.170Z,-0.39
2023-03-02T17:36:50.418Z,-0.45
2023-03-02T17:39:17.193Z,-0.37
2023-03-02T17:41:43.922Z,-0.39
2023-03-02T17:44:16.807Z,-0.37
2023-03-02T17:46:45.554Z,-0.36
2023-03-02T17:49:13.792Z,-0.32
2023-03-02T17:51:49.690Z,-0.39
2023-03-02T17:54:16.514Z,-0.46
2023-03-02T17:56:43.268Z,-0.55
2023-03-02T17:59:22.711Z,-0.57
2023-03-02T18:01:49.480Z,-0.59
2023-03-02T18:04:16.251Z,-0.58
2023-03-02T18:06:54.036Z,-0.56
2023-03-02T18:09:20.883Z,-0.57
2023-03-02T18:11:47.870Z,-0.55
2023-03-02T18:14:19.986Z,-0.59
2023-03-02T18:16:47.075Z,-0.58
2023-03-02T18:19:13.775Z,-0.54
2023-03-02T18:21:52.116Z,-0.50
2023-03-02T18:24:18.934Z,-0.55
2023-03-02T18:26:45.746Z,-0.57
2023-03-02T18:29:12.583Z,-0.59
2023-03-02T18:31:39.458Z,-0.55
2023-03-02T18:34:06.163Z,-0.52
2023-03-02T18:36:35.282Z,-0.52
2023-03-02T18:39:05.079Z,-0.53
2023-03-02T18:41:38.133Z,-0.57
2023-03-02T18:44:07.985Z,-0.45
2023-03-02T18:46:37.744Z,-0.51
2023-03-02T18:49:29.669Z,-0.52
2023-03-02T18:51:56.971Z,-0.52
2023-03-02T18:54:24.335Z,-0.52
2023-03-02T18:56:51.167Z,-0.43
2023-03-02T18:59:28.497Z,-0.49
2023-03-02T19:01:55.556Z,-0.52
2023-03-02T19:04:26.423Z,-0.56
2023-03-02T19:07:00.938Z,-0.54
2023-03-02T19:09:27.803Z,-0.57
2023-03-02T19:11:54.793Z,-0.62
2023-03-02T19:14:31.087Z,-0.36
2023-03-02T19:16:58.048Z,-0.41
2023-03-02T19:19:24.836Z,-0.58
2023-03-02T19:21:56.129Z,-0.60
2023-03-02T19:24:27.340Z,-0.63
2023-03-02T19:26:54.105Z,-0.51
2023-03-02T19:29:31.077Z,-0.55
2023-03-02T19:32:54.049Z,-0.58
2023-03-02T19:35:26.218Z,-0.52
2023-03-02T19:37:53.060Z,-0.57
2023-03-02T19:40:30.222Z,-0.53
2023-03-02T19:42:57.174Z,-0.55
2023-03-02T19:45:28.711Z,-0.48
2023-03-02T19:47:58.668Z,-0.44
2023-03-02T19:50:26.528Z,-0.42
2023-03-02T19:52:54.954Z,-0.54
2023-03-02T19:55:31.999Z,-0.48
2023-03-02T19:58:02.419Z,-0.47
2023-03-02T20:00:31.417Z,-0.50
2023-03-02T20:03:01.499Z,-0.53
2023-03-02T20:05:28.564Z,-0.43
2023-03-02T20:07:55.608Z,-0.44
2023-03-02T20:10:32.888Z,-0.40
2023-03-02T20:13:00.242Z,-0.39
2023-03-02T20:15:31.986Z,-0.39
2023-03-02T20:18:02.692Z,-0.34
2023-03-02T20:20:31.254Z,-0.28
2023-03-02T20:23:00.255Z,-0.37
2023-03-02T20:25:34.041Z,-0.36
2023-03-02T20:28:05.590Z,-0.32
2023-03-02T20:30:36.601Z,-0.35
2023-03-02T20:33:05.633Z,-0.35
2023-03-02T20:35:34.236Z,-0.38
2023-03-02T20:38:05.488Z,-0.38
2023-03-02T20:40:35.957Z,-0.37
2023-03-02T20:43:03.246Z,-0.33
2023-03-02T20:45:30.199Z,-0.34
2023-03-02T20:48:04.857Z,-0.31
2023-03-02T20:50:35.309Z,-0.31
2023-03-02T20:53:03.478Z,-0.28
2023-03-02T20:55:47.870Z,-0.29
2023-03-02T20:58:29.432Z,-0.29
2023-03-02T21:01:09.182Z,-0.27
2023-03-02T21:03:47.334Z,-0.23
2023-03-02T21:06:15.505Z,-0.18
2023-03-02T21:08:43.643Z,-0.16
2023-03-02T21:11:22.394Z,-0.17
2023-03-02T21:13:49.840Z,-0.18
2023-03-02T21:16:26.657Z,-0.18
2023-03-02T21:18:55.008Z,-0.15
2023-03-02T21:21:32.520Z,-0.06
2023-03-02T21:24:07.680Z,-0.04
2023-03-02T21:26:37.135Z,-0.04
2023-03-02T21:29:07.567Z,0.03
2023-03-02T21:31:34.593Z,0.02
2023-03-02T21:34:09.357Z,0.01
2023-03-02T21:36:36.246Z,-0.01
2023-03-02T21:39:05.084Z,-0.02
2023-03-02T21:41:40.371Z,0.04
2023-03-02T21:44:07.628Z,0.04
2023-03-02T21:46:35.749Z,0.04
2023-03-02T21:49:08.408Z,0.03
2023-03-02T21:51:38.421Z,0.08
2023-03-02T21:54:09.202Z,0.00
2023-03-02T21:56:47.236Z,0.01
2023-03-02T21:59:14.136Z,-0.01
2023-03-02T22:01:41.267Z,0.05
2023-03-02T22:04:08.109Z,0.06
2023-03-02T22:06:40.925Z,0.03
2023-03-02T22:09:07.630Z,0.07
2023-03-02T22:11:36.613Z,0.16
2023-03-02T22:14:14.862Z,0.16
2023-03-02T22:16:43.386Z,0.29
2023-03-02T22:19:29.581Z,0.15
2023-03-02T22:22:00.927Z,0.25
2023-03-02T22:24:30.610Z,0.15
2023-03-02T22:27:25.928Z,0.19
2023-03-02T22:30:00.354Z,0.16
2023-03-02T22:32:29.624Z,0.11
2023-03-02T22:35:00.345Z,0.18
2023-03-02T22:37:29.351Z,0.16
2023-03-02T22:39:58.152Z,0.13
2023-03-02T22:42:30.039Z,0.09
2023-03-02T22:45:10.143Z,0.12
2023-03-02T22:47:51.295Z,0.06
2023-03-02T22:50:31.257Z,0.09
2023-03-02T22:52:58.529Z,0.13
2023-03-02T22:55:35.766Z,0.08
2023-03-02T22:58:36.979Z,0.23
2023-03-02T23:01:38.142Z,0.14
2023-03-02T23:04:09.483Z,0.03
2023-03-02T23:06:57.082Z,0.01
2023-03-02T23:09:42.161Z,0.10
2023-03-02T23:12:17.337Z,0.04
2023-03-02T23:15:10.277Z,0.02
2023-03-02T23:17:48.469Z,-0.01
2023-03-02T23:20:16.791Z,-0.03
2023-03-02T23:22:44.597Z,0.02
2023-03-02T23:25:15.947Z,-0.02
2023-03-02T23:27:42.812Z,-0.08
2023-03-02T23:30:10.051Z,-0.08
2023-03-02T23:32:37.107Z,-0.09
2023-03-02T23:35:04.182Z,-0.15
2023-03-02T23:37:34.196Z,-0.16
2023-03-02T23:40:01.003Z,-0.18
2023-03-02T23:42:27.763Z,-0.16
2023-03-02T23:45:03.184Z,-0.19
2023-03-02T23:47:30.012Z,-0.24
2023-03-02T23:49:57.155Z,-0.24
2023-03-02T23:52:23.985Z,-0.26
2023-03-02T23:54:53.624Z,-0.22
2023-03-02T23:57:24.148Z,-0.22
2023-03-02T23:59:54.195Z,-0.15
